Аэропорт: Гумрак. Волгоград

ICAO: URWW

METAR:
2019/03/26 13:00
URWW 261300Z 21007MPS CAVOK 12/M02 Q1014 R24/010070 NOSIG
METAR:
2015/12/24 15:15
TAF COR TAF COR URWW 241510Z 2415/2524 30013G18MPS 9999 BKN007 SCT020CB BKN100 
      TEMPO 2415/2421 27008G13MPS 2100 -SHRA BR